Terminal Aerodrome Forecast
Issued by NWS

Home | Current Version | Previous Version | Text Only | Print | Product List | Glossary On
Versions: 1 2 3 4 5 6 7 8 9 10 11 12
000
FTUS45 KFGZ 182300
TAFSEZ
TAF
KSEZ 182320Z 1900/1924 17015G25KT P6SM VCSH SCT060 OVC080
      TEMPO 1900/1903 -SHRA BKN040
     FM190300 VRB06KT P6SM SCT060 BKN080
     FM191900 20008KT P6SM SCT060 BKN100=

USA.gov is the U.S. government's official web portal to all federal, state and local government web resources and services.